Time;durP1;ratioP1;P1;durP2;ratioP2;P2;SDS_P1;SDS_P2;PMS_P1;PMS_P2;Temp;Humidity;BMP_temperature;BMP_pressure;BME280_temperature;BME280_humidity;BME280_pressure;Samples;Min_cycle;Max_cycle;Signal;HPM_P1;HPM_P2
2022/06/25 00:00:35;;;;;;;12.65;8.32;;;;;;;15.78;100.00;94832.75;5040403;28;20036;-72
2022/06/25 00:03:02;;;;;;;10.20;7.28;;;;;;;15.83;100.00;94824.88;5020092;28;20079;-73
2022/06/25 00:05:30;;;;;;;14.45;8.32;;;;;;;15.84;100.00;94826.44;5072996;28;20040;-73
2022/06/25 00:07:57;;;;;;;11.75;7.20;;;;;;;15.83;100.00;94814.38;5063622;28;20040;-72
2022/06/25 00:10:24;;;;;;;9.75;6.50;;;;;;;15.80;100.00;94804.38;5067396;28;20045;-73
2022/06/25 00:12:51;;;;;;;15.07;8.13;;;;;;;15.74;100.00;94789.69;5030511;28;20426;-72
2022/06/25 00:15:18;;;;;;;10.15;8.07;;;;;;;15.68;100.00;94795.97;5047929;28;20061;-71
2022/06/25 00:17:45;;;;;;;8.02;6.95;;;;;;;15.66;100.00;94798.88;5044158;28;20411;-72
2022/06/25 00:20:12;;;;;;;8.85;6.57;;;;;;;15.65;100.00;94801.75;5068933;28;20040;-72
2022/06/25 00:22:39;;;;;;;8.55;6.25;;;;;;;15.53;100.00;94803.84;5067711;28;20701;-72
2022/06/25 00:25:07;;;;;;;10.23;7.07;;;;;;;15.40;100.00;94800.69;5062997;28;20526;-72
2022/06/25 00:27:34;;;;;;;9.40;6.97;;;;;;;15.36;100.00;94794.41;5066396;28;20647;-72
2022/06/25 00:30:05;;;;;;;7.13;5.90;;;;;;;15.26;100.00;94789.13;5054280;28;20612;-72
2022/06/25 00:32:31;;;;;;;7.32;6.22;;;;;;;15.35;100.00;94798.06;5065805;28;20688;-72
2022/06/25 00:34:59;;;;;;;8.30;6.80;;;;;;;15.23;100.00;94800.13;5044989;28;20131;-72
2022/06/25 00:37:26;;;;;;;9.90;7.22;;;;;;;15.09;100.00;94790.16;5064205;28;20040;-72
2022/06/25 00:39:53;;;;;;;10.52;7.10;;;;;;;15.06;100.00;94795.91;5037572;28;20036;-71
2022/06/25 00:42:20;;;;;;;8.20;6.25;;;;;;;15.05;100.00;94789.09;5069811;28;20043;-72
2022/06/25 00:44:47;;;;;;;8.63;6.85;;;;;;;14.98;100.00;94785.94;5041814;28;20537;-72
2022/06/25 00:47:15;;;;;;;8.52;5.85;;;;;;;15.03;100.00;94799.03;5046886;28;20040;-72
2022/06/25 00:49:42;;;;;;;9.77;6.20;;;;;;;15.08;100.00;94800.91;5048558;28;20068;-72
2022/06/25 00:52:14;;;;;;;7.60;6.22;;;;;;;15.13;100.00;94794.88;5064076;28;20102;-71
2022/06/25 00:54:50;;;;;;;6.57;5.82;;;;;;;15.12;100.00;94793.31;5043424;28;20052;-72
2022/06/25 00:57:24;;;;;;;7.78;5.70;;;;;;;15.02;100.00;94789.63;5059582;28;20071;-73
2022/06/25 00:59:53;;;;;;;8.88;6.90;;;;;;;15.01;100.00;94787.25;5057972;28;20120;-73
2022/06/25 01:02:21;;;;;;;11.43;6.70;;;;;;;15.00;100.00;94796.97;5043384;28;20037;-73
2022/06/25 01:04:51;;;;;;;11.38;6.20;;;;;;;14.97;100.00;94797.47;5043503;28;20071;-72
2022/06/25 01:07:19;;;;;;;9.48;6.97;;;;;;;14.90;100.00;94795.09;5062579;28;20045;-72
2022/06/25 01:09:51;;;;;;;8.68;7.18;;;;;;;14.81;100.00;94783.53;5067988;28;20051;-73
2022/06/25 01:12:18;;;;;;;11.57;7.28;;;;;;;14.78;100.00;94778.00;5047080;28;20089;-72
2022/06/25 01:14:45;;;;;;;11.27;7.70;;;;;;;14.75;100.00;94774.09;5053806;28;20143;-72
2022/06/25 01:17:13;;;;;;;12.27;8.20;;;;;;;14.69;100.00;94775.91;5042362;28;20072;-72
2022/06/25 01:19:40;;;;;;;13.18;8.70;;;;;;;14.69;100.00;94772.47;5049583;28;20162;-71
2022/06/25 01:22:08;;;;;;;10.63;8.05;;;;;;;14.71;100.00;94779.06;5049436;28;20050;-72
2022/06/25 01:24:37;;;;;;;9.25;7.50;;;;;;;14.70;100.00;94772.22;5049510;28;20041;-73
2022/06/25 01:27:14;;;;;;;14.90;8.38;;;;;;;14.66;100.00;94786.91;5034832;28;20045;-72
2022/06/25 01:29:41;;;;;;;14.20;8.07;;;;;;;14.75;100.00;94789.00;5036405;28;20042;-72
2022/06/25 01:32:10;;;;;;;11.70;8.27;;;;;;;14.81;100.00;94793.25;5036139;28;20120;-72
2022/06/25 01:34:37;;;;;;;14.27;8.70;;;;;;;14.84;100.00;94787.47;5026633;28;20051;-73
2022/06/25 01:37:04;;;;;;;10.70;8.60;;;;;;;14.80;100.00;94781.16;5023697;28;20041;-73
2022/06/25 01:39:31;;;;;;;13.93;9.15;;;;;;;14.94;100.00;94792.72;5024638;28;20048;-72
2022/06/25 01:41:58;;;;;;;9.57;8.32;;;;;;;14.98;100.00;94799.06;5028289;28;20479;-72
2022/06/25 01:44:25;;;;;;;17.92;8.93;;;;;;;15.06;100.00;94793.28;5031753;28;20049;-72
2022/06/25 01:46:52;;;;;;;12.00;8.65;;;;;;;15.16;100.00;94795.16;5035234;28;20087;-72
2022/06/25 01:49:19;;;;;;;13.98;8.70;;;;;;;15.18;100.00;94787.00;5018799;28;20037;-72
2022/06/25 01:51:46;;;;;;;12.00;8.93;;;;;;;15.29;100.00;94801.72;5022185;28;20029;-72
2022/06/25 01:54:13;;;;;;;11.32;8.63;;;;;;;15.23;100.00;94785.19;5026112;28;20116;-73
2022/06/25 01:56:40;;;;;;;11.85;8.70;;;;;;;15.41;100.00;94791.78;5027638;28;20554;-73
2022/06/25 01:59:07;;;;;;;11.73;8.20;;;;;;;15.48;100.00;94797.56;5027902;28;20041;-73
2022/06/25 02:01:36;;;;;;;10.30;8.82;;;;;;;15.58;100.00;94809.09;5034385;28;20609;-73
2022/06/25 02:04:03;;;;;;;12.75;8.65;;;;;;;15.61;100.00;94805.94;5036934;28;20052;-73
2022/06/25 02:06:30;;;;;;;12.27;8.95;;;;;;;15.65;100.00;94817.50;5033166;28;20041;-72
2022/06/25 02:08:59;;;;;;;12.25;8.80;;;;;;;15.58;100.00;94811.72;5015701;28;20041;-73
2022/06/25 02:11:27;;;;;;;12.38;9.73;;;;;;;15.68;100.00;94822.22;5007738;28;20041;-72
2022/06/25 02:13:53;;;;;;;10.65;8.45;;;;;;;15.70;100.00;94809.63;5023871;28;20048;-72
2022/06/25 02:16:20;;;;;;;16.25;9.55;;;;;;;15.78;100.00;94810.97;5020923;28;20049;-73
2022/06/25 02:18:48;;;;;;;13.98;9.40;;;;;;;15.76;100.00;94798.09;5027137;28;20056;-72
2022/06/25 02:21:15;;;;;;;14.32;9.15;;;;;;;15.85;100.00;94808.84;5025633;28;20025;-72
2022/06/25 02:23:42;;;;;;;13.20;10.18;;;;;;;15.82;100.00;94807.53;5022313;28;20320;-73
2022/06/25 02:26:09;;;;;;;11.00;8.40;;;;;;;15.89;100.00;94814.38;5063074;28;20047;-73
2022/06/25 02:28:35;;;;;;;11.15;9.07;;;;;;;15.96;100.00;94817.50;5046684;28;20543;-73
2022/06/25 02:31:03;;;;;;;12.32;9.23;;;;;;;15.88;100.00;94810.16;5071004;28;20044;-72
2022/06/25 02:33:30;;;;;;;13.90;9.93;;;;;;;15.98;100.00;94815.41;5066590;28;20534;-73
2022/06/25 02:36:00;;;;;;;11.25;8.40;;;;;;;16.06;100.00;94822.72;5041330;28;21398;-72
2022/06/25 02:38:28;;;;;;;15.00;9.65;;;;;;;16.09;100.00;94827.47;5044260;28;20513;-72
2022/06/25 02:40:57;;;;;;;12.90;8.18;;;;;;;16.09;100.00;94811.69;5031481;28;20032;-72
2022/06/25 02:43:28;;;;;;;11.85;9.25;;;;;;;16.08;100.00;94814.59;5038889;28;20554;-73
2022/06/25 02:46:10;;;;;;;10.55;8.45;;;;;;;16.10;100.00;94820.38;5037717;28;20588;-73
2022/06/25 02:48:37;;;;;;;11.32;7.88;;;;;;;16.16;100.00;94835.88;5024265;28;20572;-73
2022/06/25 02:51:04;;;;;;;13.40;9.35;;;;;;;16.19;100.00;94837.97;5039437;28;20048;-73
2022/06/25 02:53:33;;;;;;;14.52;7.97;;;;;;;16.13;100.00;94839.00;5027929;28;20098;-73
2022/06/25 02:58:56;;;;;;;14.48;8.07;;;;;;;16.14;100.00;94835.34;5042302;28;20056;-72
2022/06/25 03:01:36;;;;;;;11.85;7.88;;;;;;;16.11;100.00;94837.72;5043024;28;20146;-73
2022/06/25 03:04:03;;;;;;;12.10;9.48;;;;;;;16.06;100.00;94833.25;5045195;28;20139;-73
2022/06/25 03:06:30;;;;;;;17.77;9.40;;;;;;;16.03;100.00;94828.53;5047748;28;20258;-73
2022/06/25 03:08:57;;;;;;;17.25;9.15;;;;;;;16.00;100.00;94824.59;5067617;28;20194;-73
2022/06/25 03:11:25;;;;;;;11.20;9.40;;;;;;;15.98;100.00;94829.31;5042922;28;20050;-73
2022/06/25 03:13:52;;;;;;;15.93;9.07;;;;;;;16.05;100.00;94829.84;5040871;28;20040;-72
2022/06/25 03:16:21;;;;;;;13.85;9.73;;;;;;;16.07;100.00;94819.06;5046159;28;20048;-72
2022/06/25 03:18:50;;;;;;;10.95;7.82;;;;;;;16.13;100.00;94828.50;5048266;28;20072;-72
2022/06/25 03:21:36;;;;;;;15.43;8.35;;;;;;;16.20;100.00;94839.53;5059347;28;20182;-72
2022/06/25 03:24:06;;;;;;;12.02;7.90;;;;;;;16.17;100.00;94829.56;5027387;28;20126;-72
2022/06/25 03:26:34;;;;;;;12.88;9.00;;;;;;;16.19;100.00;94827.47;5041728;28;20048;-72
2022/06/25 03:29:03;;;;;;;11.00;8.32;;;;;;;16.19;100.00;94822.19;5042841;28;20048;-73
2022/06/25 03:31:32;;;;;;;11.60;8.18;;;;;;;16.31;100.00;94827.16;5030328;28;20131;-72
2022/06/25 03:34:05;;;;;;;12.05;7.88;;;;;;;16.33;100.00;94819.81;5056946;28;20103;-71
2022/06/25 03:36:41;;;;;;;14.15;8.73;;;;;;;16.43;100.00;94832.13;5043336;28;20040;-73
2022/06/25 03:39:08;;;;;;;16.33;9.32;;;;;;;16.46;100.00;94826.34;5051602;28;20054;-72
2022/06/25 03:41:36;;;;;;;15.63;9.43;;;;;;;16.46;100.00;94823.72;5042180;28;20052;-72
2022/06/25 03:44:34;;;;;;;12.18;8.68;;;;;;;16.52;100.00;94814.75;5046089;28;20037;-73
2022/06/25 03:47:10;;;;;;;11.63;8.90;;;;;;;16.56;100.00;94821.03;5023425;28;20672;-72
2022/06/25 03:49:38;;;;;;;15.65;9.35;;;;;;;16.65;100.00;94823.13;5038705;28;20752;-73
2022/06/25 03:52:11;;;;;;;10.98;8.40;;;;;;;16.72;100.00;94826.25;5037340;28;20047;-73
2022/06/25 03:54:38;;;;;;;11.35;8.20;;;;;;;16.78;100.00;94825.16;5070706;28;20593;-73
2022/06/25 03:57:05;;;;;;;13.40;7.78;;;;;;;16.84;100.00;94829.38;5045774;28;20048;-73
2022/06/25 04:00:04;;;;;;;10.88;8.35;;;;;;;16.82;100.00;94813.06;5046873;28;20048;-73
2022/06/25 04:02:38;;;;;;;10.93;8.48;;;;;;;17.02;100.00;94828.00;5045849;28;20720;-73
2022/06/25 04:05:23;;;;;;;17.42;9.13;;;;;;;17.13;100.00;94828.72;5062589;28;20067;-73
2022/06/25 04:07:50;;;;;;;12.90;8.50;;;;;;;17.21;100.00;94825.50;5044683;28;20048;-73
2022/06/25 04:10:18;;;;;;;11.60;8.30;;;;;;;17.29;100.00;94832.06;5034897;28;20040;-72
2022/06/25 04:12:45;;;;;;;18.38;9.20;;;;;;;17.36;100.00;94828.06;5046432;28;20052;-73
2022/06/25 04:15:12;;;;;;;11.98;7.38;;;;;;;17.38;100.00;94820.66;5051976;28;20458;-73
2022/06/25 04:17:39;;;;;;;10.75;7.63;;;;;;;17.46;100.00;94821.91;5043976;28;20036;-73
2022/06/25 04:20:08;;;;;;;10.25;7.85;;;;;;;17.56;100.00;94826.34;5049778;28;20093;-73
2022/06/25 04:22:37;;;;;;;16.80;9.05;;;;;;;17.61;100.00;94844.75;5045045;28;20055;-72
2022/06/25 04:25:05;;;;;;;9.32;7.53;;;;;;;17.62;100.00;94846.31;5046952;28;20049;-73
2022/06/25 04:30:18;;;;;;;11.95;8.05;;;;;;;17.76;100.00;94841.97;5041380;28;20128;-73
2022/06/25 04:32:48;;;;;;;12.15;8.35;;;;;;;17.74;100.00;94844.09;5046201;28;20067;-72
2022/06/25 04:35:17;;;;;;;8.88;7.80;;;;;;;17.69;100.00;94836.25;5044000;28;21599;-73
2022/06/25 04:37:45;;;;;;;12.45;8.13;;;;;;;17.70;100.00;94826.47;5043049;28;20045;-73
2022/06/25 04:40:15;;;;;;;8.80;7.90;;;;;;;17.85;100.00;94828.22;5037452;28;20728;-72
2022/06/25 04:42:47;;;;;;;11.23;7.80;;;;;;;17.84;100.00;94826.66;5043825;28;20748;-73
2022/06/25 04:45:15;;;;;;;13.32;8.85;;;;;;;17.95;100.00;94838.69;5039047;28;20037;-72
2022/06/25 04:48:05;;;;;;;13.20;8.48;;;;;;;18.04;100.00;94847.59;5050376;28;20059;-72
2022/06/25 04:50:56;;;;;;;11.27;9.10;;;;;;;18.15;100.00;94854.34;5040646;28;20056;-72
2022/06/25 04:53:24;;;;;;;10.95;8.82;;;;;;;18.27;100.00;94851.31;5049076;28;20045;-72
2022/06/25 04:55:52;;;;;;;10.57;9.07;;;;;;;18.39;100.00;94848.31;5038865;28;20045;-72
2022/06/25 04:58:19;;;;;;;9.77;8.52;;;;;;;18.34;100.00;94822.78;5050356;28;20044;-73
2022/06/25 05:01:09;;;;;;;10.40;8.80;;;;;;;18.65;100.00;94846.16;5040741;28;20711;-73
2022/06/25 05:03:36;;;;;;;10.57;8.70;;;;;;;18.72;100.00;94851.13;5048075;28;20437;-72
2022/06/25 05:06:08;;;;;;;19.15;13.32;;;;;;;18.69;100.00;94846.38;5029359;28;20658;-73
2022/06/25 05:08:36;;;;;;;18.55;11.43;;;;;;;18.76;100.00;94846.84;5045917;28;20044;-73
2022/06/25 05:11:04;;;;;;;15.40;9.77;;;;;;;18.90;100.00;94857.53;5041293;28;20060;-72
2022/06/25 05:13:31;;;;;;;9.90;8.38;;;;;;;19.10;100.00;94853.84;5043655;28;20045;-73
2022/06/25 05:15:58;;;;;;;10.82;7.95;;;;;;;19.26;100.00;94859.72;5025639;28;20091;-73
2022/06/25 05:18:25;;;;;;;14.07;9.18;;;;;;;19.18;100.00;94853.22;5040850;28;20052;-73
2022/06/25 05:20:53;;;;;;;10.27;8.40;;;;;;;19.18;100.00;94863.78;5027673;28;20040;-72
2022/06/25 05:23:20;;;;;;;13.18;8.63;;;;;;;19.25;100.00;94858.94;5043692;28;20048;-73
2022/06/25 05:25:49;;;;;;;8.73;7.82;;;;;;;19.28;100.00;94868.94;5047042;28;20484;-72
2022/06/25 05:28:17;;;;;;;10.45;8.23;;;;;;;19.37;100.00;94884.13;5043573;28;20059;-72
2022/06/25 05:30:44;;;;;;;21.17;8.40;;;;;;;19.16;100.00;94870.41;5046374;28;20123;-72
2022/06/25 05:33:11;;;;;;;11.25;7.75;;;;;;;19.12;100.00;94864.13;5024198;28;20037;-72
2022/06/25 05:35:38;;;;;;;13.00;7.50;;;;;;;19.12;100.00;94870.19;5043739;28;20041;-72
2022/06/25 05:38:08;;;;;;;9.98;8.55;;;;;;;19.26;100.00;94875.56;5046669;28;20724;-72
2022/06/25 05:40:35;;;;;;;9.15;7.38;;;;;;;19.31;100.00;94872.84;5050571;28;20040;-72
2022/06/25 05:43:03;;;;;;;9.60;8.20;;;;;;;19.27;100.00;94872.66;5043902;28;20718;-72
2022/06/25 05:45:30;;;;;;;11.35;7.93;;;;;;;19.19;100.00;94854.78;5048466;28;20039;-73
2022/06/25 05:47:57;;;;;;;10.77;7.97;;;;;;;19.35;100.00;94878.34;5046571;28;20502;-73
2022/06/25 05:50:24;;;;;;;15.52;9.48;;;;;;;19.21;100.00;94876.44;5052585;28;20036;-72
2022/06/25 05:52:53;;;;;;;10.48;8.70;;;;;;;19.40;100.00;94875.66;5046277;28;20052;-73
2022/06/25 05:55:21;;;;;;;11.95;7.82;;;;;;;19.42;100.00;94852.38;5042635;28;20569;-73
2022/06/25 05:57:48;;;;;;;13.02;8.75;;;;;;;19.73;100.00;94883.63;5054839;28;20044;-73
2022/06/25 06:00:15;;;;;;;15.75;9.38;;;;;;;19.74;100.00;94874.69;5043727;28;20046;-72
2022/06/25 06:02:42;;;;;;;11.57;7.72;;;;;;;19.85;100.00;94889.28;5049152;28;20037;-73
2022/06/25 06:05:10;;;;;;;12.07;9.38;;;;;;;19.98;100.00;94885.91;5051833;28;20935;-73
2022/06/25 06:07:37;;;;;;;18.83;10.25;;;;;;;20.17;100.00;94882.47;5049974;28;20517;-72
2022/06/25 06:10:05;;;;;;;12.43;7.10;;;;;;;20.38;99.42;94882.88;5046232;28;20152;-72
2022/06/25 06:12:32;;;;;;;7.07;6.38;;;;;;;20.62;96.19;94877.47;5045363;28;20259;-72
2022/06/25 06:14:59;;;;;;;10.80;7.55;;;;;;;20.85;95.48;94880.19;5036680;28;20041;-73
2022/06/25 06:17:26;;;;;;;12.00;7.35;;;;;;;20.96;94.44;94871.00;5048653;28;20041;-73
2022/06/25 06:19:53;;;;;;;8.40;6.93;;;;;;;21.20;93.46;94868.91;5042421;28;20037;-73
2022/06/25 06:22:21;;;;;;;11.50;6.43;;;;;;;21.25;93.10;94877.81;5038712;28;20147;-72
2022/06/25 06:24:47;;;;;;;11.35;6.63;;;;;;;21.45;90.66;94877.41;5034171;28;20058;-72
2022/06/25 06:27:14;;;;;;;8.48;6.10;;;;;;;21.26;91.41;94866.16;5020737;28;20473;-71
2022/06/25 06:29:41;;;;;;;7.15;6.45;;;;;;;21.46;90.93;94868.38;5022547;28;20752;-72
2022/06/25 06:32:08;;;;;;;10.13;6.28;;;;;;;21.74;89.62;94874.38;5024275;28;20059;-72
2022/06/25 06:34:35;;;;;;;9.30;6.55;;;;;;;21.96;87.45;94876.25;5035330;28;20572;-73
2022/06/25 06:37:02;;;;;;;7.78;6.00;;;;;;;21.99;87.38;94874.09;5029466;28;20705;-72
2022/06/25 06:39:29;;;;;;;9.60;5.80;;;;;;;22.13;87.50;94874.81;5024805;28;20046;-73
2022/06/25 06:41:56;;;;;;;10.38;6.57;;;;;;;22.18;86.53;94876.53;5026489;28;20098;-72
2022/06/25 06:44:23;;;;;;;10.43;6.38;;;;;;;22.27;86.19;94880.84;5023556;28;20032;-72
2022/06/25 06:46:50;;;;;;;9.73;6.93;;;;;;;22.21;85.78;94882.03;5022692;28;20049;-73
2022/06/25 06:49:17;;;;;;;7.63;5.82;;;;;;;22.30;83.88;94879.47;5005646;28;20068;-73
2022/06/25 06:51:44;;;;;;;12.32;5.80;;;;;;;22.16;85.17;94868.88;5021966;28;20045;-72
2022/06/25 06:54:11;;;;;;;7.03;6.30;;;;;;;22.38;86.15;94869.97;5017984;28;20037;-73
2022/06/25 06:56:39;;;;;;;11.00;6.13;;;;;;;22.54;85.46;94879.09;5027840;28;20045;-72
2022/06/25 06:59:06;;;;;;;8.73;6.18;;;;;;;22.74;84.88;94871.69;5017834;28;20045;-72
2022/06/25 07:01:34;;;;;;;12.38;6.20;;;;;;;22.75;84.15;94873.28;5022096;28;20046;-73
2022/06/25 07:04:01;;;;;;;7.90;6.22;;;;;;;22.54;84.51;94871.13;5026229;28;20166;-73
2022/06/25 07:06:27;;;;;;;7.32;6.57;;;;;;;22.61;83.71;94879.44;5037296;28;20585;-73
2022/06/25 07:08:54;;;;;;;10.35;6.20;;;;;;;22.73;82.79;94864.84;5033770;28;20041;-73
2022/06/25 07:11:30;;;;;;;7.78;6.30;;;;;;;22.98;83.24;94866.78;5034280;28;20067;-73
2022/06/25 07:14:03;;;;;;;8.27;7.05;;;;;;;23.15;83.56;94866.06;5037361;28;20037;-72
2022/06/25 07:16:32;;;;;;;7.88;6.50;;;;;;;23.32;84.21;94873.28;5024820;28;20037;-73
2022/06/25 07:19:01;;;;;;;8.45;6.82;;;;;;;23.57;86.26;94870.94;5030893;28;20128;-73
2022/06/25 07:21:28;;;;;;;11.68;6.57;;;;;;;23.82;84.22;94862.25;5034363;28;20033;-73
2022/06/25 07:23:56;;;;;;;7.57;6.78;;;;;;;24.21;81.66;94879.06;5028671;28;20055;-73
2022/06/25 07:26:24;;;;;;;7.57;6.20;;;;;;;24.40;81.22;94883.28;5047076;28;20040;-73
2022/06/25 07:28:52;;;;;;;9.32;6.85;;;;;;;24.56;76.01;94873.69;5057364;28;20260;-73
2022/06/25 07:31:19;;;;;;;7.75;6.60;;;;;;;24.78;74.74;94872.66;5066175;28;20120;-73
2022/06/25 07:33:46;;;;;;;9.18;6.35;;;;;;;24.92;72.94;94866.31;5041861;28;20429;-73
2022/06/25 07:36:13;;;;;;;8.57;6.10;;;;;;;25.03;73.14;94869.41;5058547;28;20043;-73
2022/06/25 07:38:40;;;;;;;8.80;7.00;;;;;;;24.91;72.18;94873.53;5043445;28;20045;-72
2022/06/25 07:41:07;;;;;;;8.90;6.30;;;;;;;24.93;72.72;94876.66;5057816;28;20048;-73
2022/06/25 07:43:35;;;;;;;12.90;6.93;;;;;;;24.99;72.30;94880.72;5064480;28;20076;-73
2022/06/25 07:46:02;;;;;;;10.05;6.28;;;;;;;24.65;71.25;94886.19;5022705;28;20045;-72
2022/06/25 07:48:30;;;;;;;13.13;5.63;;;;;;;24.64;72.43;94880.09;5056855;28;20040;-73
2022/06/25 07:53:42;;;;;;;8.48;5.97;;;;;;;24.43;74.14;94902.06;5074008;28;20691;-72
2022/06/25 07:56:09;;;;;;;7.07;6.38;;;;;;;24.32;76.07;94900.03;5039314;28;20037;-72
2022/06/25 07:58:36;;;;;;;11.57;6.03;;;;;;;24.27;75.63;94894.88;5056677;28;20036;-73
2022/06/25 08:01:02;;;;;;;11.38;6.95;;;;;;;24.35;73.39;94891.41;5057141;28;20097;-72
2022/06/25 08:03:30;;;;;;;6.72;5.82;;;;;;;24.60;72.73;94892.47;5036112;28;20494;-73
2022/06/25 08:05:57;;;;;;;7.03;6.10;;;;;;;24.75;70.68;94891.94;5069700;28;20544;-73
2022/06/25 08:08:25;;;;;;;9.70;6.40;;;;;;;24.78;70.12;94879.88;5065244;28;20044;-72
2022/06/25 08:10:52;;;;;;;7.80;5.85;;;;;;;25.24;68.47;94885.44;5066057;28;20067;-73
2022/06/25 08:13:20;;;;;;;8.80;5.90;;;;;;;25.58;68.02;94873.78;5045805;28;20036;-73
2022/06/25 08:15:49;;;;;;;8.90;5.25;;;;;;;25.94;67.37;94888.44;5073910;28;20041;-72
2022/06/25 08:18:16;;;;;;;7.38;6.00;;;;;;;25.99;66.02;94884.81;5067677;28;20121;-73
2022/06/25 08:20:43;;;;;;;9.05;5.65;;;;;;;25.91;64.63;94886.38;5071492;28;20040;-73
2022/06/25 08:23:11;;;;;;;8.57;5.78;;;;;;;25.98;65.93;94889.34;5037181;28;20051;-73
2022/06/25 08:25:38;;;;;;;7.03;5.90;;;;;;;25.88;64.72;94881.72;5034850;28;20051;-70
2022/06/25 08:28:05;;;;;;;6.90;6.20;;;;;;;25.93;65.58;94879.66;5034096;28;20068;-71
2022/06/25 08:30:33;;;;;;;5.70;5.10;;;;;;;26.07;63.29;94874.06;5042666;28;20158;-71
2022/06/25 08:33:00;;;;;;;8.02;5.82;;;;;;;26.19;63.21;94864.53;5042100;28;20445;-71
2022/06/25 08:35:27;;;;;;;6.38;5.53;;;;;;;26.46;60.57;94863.91;5061220;28;20533;-71
2022/06/25 08:37:55;;;;;;;7.05;5.75;;;;;;;26.60;61.66;94868.16;5074808;28;20047;-71
2022/06/25 08:40:22;;;;;;;7.63;5.93;;;;;;;26.32;62.03;94863.44;5068174;28;20032;-71
2022/06/25 08:42:49;;;;;;;9.00;6.45;;;;;;;26.01;62.59;94875.34;5073653;28;20111;-71
2022/06/25 08:45:19;;;;;;;7.82;5.82;;;;;;;25.70;62.84;94879.19;5044032;28;20734;-70
2022/06/25 08:47:48;;;;;;;8.98;6.35;;;;;;;26.03;61.20;94881.13;5039649;28;20025;-71
2022/06/25 08:50:18;;;;;;;9.55;5.75;;;;;;;26.15;60.90;94874.31;5054218;28;20064;-70
2022/06/25 08:52:50;;;;;;;8.38;6.13;;;;;;;26.04;63.55;94880.03;5069440;28;20431;-72
2022/06/25 08:55:26;;;;;;;9.85;5.88;;;;;;;26.59;61.81;94886.06;5072731;28;20047;-72
2022/06/25 08:57:54;;;;;;;10.60;5.70;;;;;;;26.78;59.45;94885.56;5071864;28;20066;-72
2022/06/25 09:00:22;;;;;;;8.40;5.75;;;;;;;26.96;60.67;94886.13;5045657;28;20049;-72
2022/06/25 09:02:51;;;;;;;8.25;5.45;;;;;;;27.04;58.18;94892.47;5068741;28;20082;-72
2022/06/25 09:05:25;;;;;;;6.07;4.65;;;;;;;27.24;58.00;94891.59;5066792;28;20128;-72
2022/06/25 09:07:55;;;;;;;27.27;6.95;;;;;;;27.50;53.69;94887.78;5067373;28;20040;-72
2022/06/25 09:10:24;;;;;;;10.60;6.53;;;;;;;27.65;53.58;94897.78;5066006;28;20048;-72
2022/06/25 09:12:55;;;;;;;12.30;6.18;;;;;;;27.36;51.30;94887.38;5070387;28;20173;-72
2022/06/25 09:15:24;;;;;;;9.45;5.38;;;;;;;27.39;51.04;94889.38;5065679;28;20565;-72
2022/06/25 09:17:52;;;;;;;6.63;5.03;;;;;;;26.98;52.42;94893.81;5069795;28;21206;-71
2022/06/25 09:20:26;;;;;;;5.90;5.25;;;;;;;27.50;51.07;94893.13;5043581;28;20095;-72
2022/06/25 09:23:13;;;;;;;8.75;5.85;;;;;;;27.73;50.77;94895.31;5061531;28;20033;-72
2022/06/25 09:25:41;;;;;;;12.07;6.07;;;;;;;27.91;51.58;94901.97;5048643;28;20044;-72
2022/06/25 09:28:27;;;;;;;15.88;6.47;;;;;;;28.28;50.31;94899.13;5055923;28;20044;-72
2022/06/25 09:30:54;;;;;;;7.57;5.80;;;;;;;27.94;49.55;94890.56;5069926;28;20457;-72
2022/06/25 09:33:21;;;;;;;7.20;6.13;;;;;;;28.06;50.65;94891.66;5043022;28;20480;-72
2022/06/25 09:35:51;;;;;;;10.30;5.70;;;;;;;28.41;51.33;94897.97;5064566;28;20556;-72
2022/06/25 09:38:19;;;;;;;10.88;5.72;;;;;;;28.46;50.79;94890.78;5063300;28;20040;-72
2022/06/25 09:40:57;;;;;;;12.93;5.40;;;;;;;29.13;46.63;94894.34;5032659;28;20048;-72
2022/06/25 09:43:47;;;;;;;7.90;5.93;;;;;;;29.17;46.87;94889.91;5063588;28;20211;-72
2022/06/25 09:46:15;;;;;;;7.55;5.30;;;;;;;29.39;42.48;94895.75;5071431;28;20145;-73
2022/06/25 09:48:43;;;;;;;11.18;5.40;;;;;;;29.40;40.44;94897.28;5041320;28;20055;-72
2022/06/25 09:51:23;;;;;;;10.50;5.72;;;;;;;29.11;42.61;94890.47;5054753;28;20039;-73
2022/06/25 09:53:55;;;;;;;8.93;5.05;;;;;;;29.12;42.72;94889.38;5063714;28;20085;-71
2022/06/25 09:56:33;;;;;;;7.78;4.63;;;;;;;28.99;42.79;94872.56;5063769;28;20052;-71
2022/06/25 09:59:00;;;;;;;7.65;5.10;;;;;;;28.75;43.22;94874.31;5067186;28;20335;-70
2022/06/25 10:01:30;;;;;;;8.35;4.75;;;;;;;28.46;41.65;94872.06;5046349;28;20139;-71
2022/06/25 10:04:01;;;;;;;10.45;4.72;;;;;;;28.59;41.14;94871.66;5067594;28;20033;-71
2022/06/25 10:06:34;;;;;;;9.27;5.93;;;;;;;28.59;40.73;94868.19;5061889;28;20040;-71
2022/06/25 10:09:06;;;;;;;13.45;5.57;;;;;;;29.13;41.50;94878.25;5050429;28;20048;-71
2022/06/25 10:11:34;;;;;;;9.77;5.47;;;;;;;29.11;41.84;94859.06;5045103;28;20047;-71
2022/06/25 10:14:02;;;;;;;7.40;5.70;;;;;;;29.27;43.60;94874.41;5061430;28;20065;-71
2022/06/25 10:16:29;;;;;;;13.65;5.72;;;;;;;29.67;42.96;94866.03;5059008;28;20040;-71
2022/06/25 10:18:56;;;;;;;6.50;5.22;;;;;;;29.48;40.81;94861.44;5067456;28;20107;-71
2022/06/25 10:21:24;;;;;;;9.80;4.93;;;;;;;29.61;42.55;94864.00;5028464;28;20095;-71
2022/06/25 10:24:00;;;;;;;9.75;6.22;;;;;;;30.04;41.58;94859.50;5062888;28;20035;-71
2022/06/25 10:26:29;;;;;;;6.13;4.78;;;;;;;30.17;40.83;94862.81;5044106;28;20051;-71
2022/06/25 10:28:55;;;;;;;7.63;4.93;;;;;;;30.45;40.97;94857.19;5069354;28;20047;-71
2022/06/25 10:31:22;;;;;;;8.93;5.10;;;;;;;30.53;40.41;94864.25;5064538;28;20037;-71
2022/06/25 10:34:02;;;;;;;7.97;5.50;;;;;;;30.60;39.92;94861.69;5045124;28;20124;-72
2022/06/25 10:36:43;;;;;;;9.32;4.55;;;;;;;30.83;38.77;94855.53;5058184;28;20536;-70
2022/06/25 10:39:23;;;;;;;7.65;5.00;;;;;;;30.65;38.88;94861.38;5063756;28;20040;-70
2022/06/25 10:45:04;;;;;;;6.90;4.90;;;;;;;31.48;40.76;94856.47;5048533;28;20048;-71
2022/06/25 10:47:59;;;;;;;6.00;3.97;;;;;;;31.66;36.81;94845.94;5061141;28;20128;-71
2022/06/25 10:50:30;;;;;;;5.82;4.88;;;;;;;32.02;37.18;94841.75;5063862;28;20048;-70
2022/06/25 10:53:04;;;;;;;10.27;5.28;;;;;;;32.00;37.76;94844.06;5062071;28;20047;-71
2022/06/25 10:55:47;;;;;;;7.43;4.65;;;;;;;32.07;36.80;94844.16;5072641;28;20038;-71
2022/06/25 10:58:22;;;;;;;8.52;5.80;;;;;;;32.17;36.50;94843.47;5076145;28;20040;-70
2022/06/25 11:01:01;;;;;;;9.35;4.82;;;;;;;32.27;37.51;94846.63;5080041;28;20122;-70
2022/06/25 11:03:28;;;;;;;9.15;5.20;;;;;;;32.60;35.42;94845.06;5075558;28;20135;-70
2022/06/25 11:05:57;;;;;;;6.63;4.57;;;;;;;32.97;34.39;94850.34;5071209;28;20703;-70
2022/06/25 11:08:36;;;;;;;9.10;5.07;;;;;;;33.74;35.69;94846.97;5075344;28;20040;-70
2022/06/25 11:11:05;;;;;;;8.45;4.50;;;;;;;33.71;32.96;94848.53;5073876;28;20047;-70
2022/06/25 11:13:33;;;;;;;8.38;4.78;;;;;;;33.39;35.33;94832.16;5048108;28;20044;-70
2022/06/25 11:16:16;;;;;;;6.45;4.45;;;;;;;32.82;36.14;94838.69;5053218;28;20584;-70
2022/06/25 11:18:56;;;;;;;6.83;4.63;;;;;;;32.56;35.72;94851.16;5053590;28;20044;-70
2022/06/25 11:21:35;;;;;;;6.97;4.97;;;;;;;32.58;36.30;94840.81;5075517;28;20493;-70
2022/06/25 11:24:25;;;;;;;7.57;4.32;;;;;;;32.85;38.54;94824.47;5068601;28;20044;-71
2022/06/25 11:29:51;;;;;;;8.70;5.05;;;;;;;32.10;40.27;94827.25;5032961;28;20660;-70
2022/06/25 11:32:19;;;;;;;5.72;3.75;;;;;;;32.17;39.31;94811.16;5054776;28;20037;-70
2022/06/25 11:34:51;;;;;;;6.88;3.88;;;;;;;32.74;37.89;94820.91;5068613;28;20037;-70
2022/06/25 11:37:18;;;;;;;8.45;3.80;;;;;;;33.23;38.62;94819.72;5022288;28;20051;-70
2022/06/25 11:39:48;;;;;;;9.30;3.92;;;;;;;33.45;38.79;94815.19;5057974;28;20033;-71
2022/06/25 11:42:15;;;;;;;10.07;4.22;;;;;;;33.04;38.08;94811.84;5057534;28;20048;-71
2022/06/25 11:44:45;;;;;;;6.93;4.13;;;;;;;32.53;39.35;94816.84;5047582;28;20041;-71
2022/06/25 11:47:15;;;;;;;9.77;5.22;;;;;;;32.05;41.45;94808.72;5052892;28;20044;-70
2022/06/25 11:49:43;;;;;;;9.30;5.28;;;;;;;31.72;42.92;94802.19;5040173;28;20208;-69